createdAt,value
2023-05-22T00:00:20.402Z,15.14
2023-05-22T00:03:08.821Z,15.20
2023-05-22T00:06:00.591Z,15.08
2023-05-22T00:08:48.565Z,15.16
2023-05-22T00:11:36.790Z,14.99
2023-05-22T00:14:24.634Z,14.99
2023-05-22T00:17:15.145Z,15.01
2023-05-22T00:20:11.328Z,14.81
2023-05-22T00:23:01.346Z,14.93
2023-05-22T00:25:50.795Z,14.84
2023-05-22T00:28:57.111Z,14.90
2023-05-22T00:31:44.742Z,14.83
2023-05-22T00:34:32.400Z,14.78
2023-05-22T00:37:20.609Z,14.47
2023-05-22T00:40:09.153Z,14.66
2023-05-22T00:42:56.906Z,14.65
2023-05-22T00:45:45.542Z,14.74
2023-05-22T00:48:33.509Z,14.43
2023-05-22T00:51:22.347Z,14.65
2023-05-22T00:54:10.769Z,14.66
2023-05-22T00:56:58.604Z,14.75
2023-05-22T00:59:46.763Z,14.67
2023-05-22T01:02:34.822Z,14.46
2023-05-22T01:05:22.715Z,14.51
2023-05-22T01:08:10.592Z,14.33
2023-05-22T01:11:05.373Z,14.46
2023-05-22T01:14:11.219Z,14.40
2023-05-22T01:17:53.712Z,14.42
2023-05-22T01:20:48.882Z,14.38
2023-05-22T01:23:58.146Z,14.36
2023-05-22T01:27:18.473Z,14.34
2023-05-22T01:30:41.417Z,14.34
2023-05-22T01:33:33.926Z,14.29
2023-05-22T01:36:25.234Z,14.27
2023-05-22T01:39:14.064Z,14.12
2023-05-22T01:42:02.750Z,14.06
2023-05-22T01:44:50.811Z,13.94
2023-05-22T01:47:38.677Z,13.91
2023-05-22T01:50:26.861Z,14.17
2023-05-22T01:53:23.490Z,14.01
2023-05-22T01:56:30.981Z,14.15
2023-05-22T01:59:33.459Z,13.98
2023-05-22T02:02:23.748Z,14.05
2023-05-22T02:05:15.215Z,13.98
2023-05-22T02:08:04.730Z,13.97
2023-05-22T02:10:56.429Z,13.93
2023-05-22T02:13:44.173Z,14.01
2023-05-22T02:16:32.336Z,14.09
2023-05-22T02:19:20.349Z,14.11
2023-05-22T02:22:10.583Z,13.95
2023-05-22T02:24:58.479Z,13.75
2023-05-22T02:27:48.078Z,13.97
2023-05-22T02:30:36.130Z,13.73
2023-05-22T02:33:24.174Z,13.98
2023-05-22T02:36:13.327Z,13.92
2023-05-22T02:39:01.189Z,13.76
2023-05-22T02:41:49.569Z,13.75
2023-05-22T02:44:37.430Z,13.34
2023-05-22T02:47:25.521Z,13.66
2023-05-22T02:50:13.488Z,13.60
2023-05-22T02:53:01.503Z,13.76
2023-05-22T02:55:49.297Z,13.65
2023-05-22T02:58:38.075Z,13.70
2023-05-22T03:01:30.804Z,13.68
2023-05-22T03:04:21.296Z,13.64
2023-05-22T03:07:09.241Z,13.44
2023-05-22T03:09:57.150Z,13.46
2023-05-22T03:12:45.003Z,13.64
2023-05-22T03:15:33.137Z,13.47
2023-05-22T03:18:31.906Z,13.59
2023-05-22T03:21:19.752Z,13.49
2023-05-22T03:24:08.519Z,13.47
2023-05-22T03:26:56.397Z,13.44
2023-05-22T03:29:53.831Z,13.54
2023-05-22T03:32:42.907Z,13.42
2023-05-22T03:35:30.661Z,13.52
2023-05-22T03:38:18.346Z,13.53
2023-05-22T03:41:06.203Z,13.56
2023-05-22T03:43:55.250Z,13.61
2023-05-22T03:46:44.491Z,13.63
2023-05-22T03:49:34.715Z,13.53
2023-05-22T03:52:23.587Z,13.74
2023-05-22T03:55:11.339Z,13.72
2023-05-22T03:57:59.181Z,13.90
2023-05-22T04:00:47.209Z,13.92
2023-05-22T04:03:37.033Z,14.25
2023-05-22T04:06:25.894Z,14.30
2023-05-22T04:09:17.156Z,14.37
2023-05-22T04:12:05.610Z,14.33
2023-05-22T04:14:53.581Z,14.38
2023-05-22T04:17:41.854Z,14.42
2023-05-22T04:20:29.732Z,14.43
2023-05-22T04:23:17.905Z,14.24
2023-05-22T04:26:08.996Z,14.61
2023-05-22T04:28:56.751Z,14.75
2023-05-22T04:31:44.788Z,14.75
2023-05-22T04:34:33.990Z,14.88
2023-05-22T04:37:21.756Z,15.03
2023-05-22T04:40:11.637Z,15.12
2023-05-22T04:43:01.079Z,15.04
2023-05-22T04:45:51.775Z,15.39
2023-05-22T04:48:40.542Z,15.49
2023-05-22T04:51:29.100Z,15.72
2023-05-22T04:54:16.821Z,15.99
2023-05-22T04:57:05.148Z,16.16
2023-05-22T04:59:54.342Z,16.46
2023-05-22T05:02:43.506Z,16.70
2023-05-22T05:05:31.847Z,17.10
2023-05-22T05:08:19.837Z,17.37
2023-05-22T05:11:07.624Z,17.55
2023-05-22T05:13:55.288Z,17.43
2023-05-22T05:16:44.152Z,17.85
2023-05-22T05:19:32.726Z,17.69
2023-05-22T05:22:24.909Z,18.13
2023-05-22T05:25:13.331Z,18.22
2023-05-22T05:28:01.341Z,18.50
2023-05-22T05:30:49.934Z,18.43
2023-05-22T05:34:00.967Z,18.78
2023-05-22T05:37:05.555Z,18.95
2023-05-22T05:39:55.400Z,18.77
2023-05-22T05:42:43.162Z,18.87
2023-05-22T05:45:31.624Z,18.68
2023-05-22T05:48:19.607Z,19.08
2023-05-22T05:51:09.157Z,19.40
2023-05-22T05:54:00.902Z,19.69
2023-05-22T05:56:48.825Z,19.73
2023-05-22T05:59:37.527Z,19.43
2023-05-22T06:02:44.065Z,19.51
2023-05-22T06:05:55.224Z,19.87
2023-05-22T06:09:08.826Z,20.24
2023-05-22T06:12:13.879Z,20.45
2023-05-22T06:15:06.122Z,20.70
2023-05-22T06:17:54.051Z,20.41
2023-05-22T06:20:42.510Z,20.52
2023-05-22T06:23:30.451Z,20.62
2023-05-22T06:26:18.746Z,20.87
2023-05-22T06:29:07.042Z,20.88
2023-05-22T06:31:56.770Z,20.99
2023-05-22T06:34:50.616Z,21.17
2023-05-22T06:37:45.475Z,21.47
2023-05-22T06:40:33.414Z,21.36
2023-05-22T06:43:30.335Z,21.56
2023-05-22T06:46:27.479Z,21.58
2023-05-22T06:49:19.568Z,21.47
2023-05-22T06:52:10.875Z,21.53
2023-05-22T06:55:04.718Z,22.01
2023-05-22T06:57:58.135Z,22.26
2023-05-22T07:00:47.938Z,22.02
2023-05-22T07:03:40.159Z,22.31
2023-05-22T07:06:48.971Z,22.67
2023-05-22T07:09:36.775Z,22.48
2023-05-22T07:12:28.708Z,22.36
2023-05-22T07:15:16.688Z,22.77
2023-05-22T07:18:10.564Z,22.42
2023-05-22T07:21:00.896Z,23.01
2023-05-22T07:23:49.121Z,22.92
2023-05-22T07:26:38.167Z,23.06
2023-05-22T07:29:32.185Z,23.25
2023-05-22T07:32:21.797Z,23.25
2023-05-22T07:35:11.094Z,23.13
2023-05-22T07:37:58.804Z,22.69
2023-05-22T07:40:46.718Z,22.44
2023-05-22T07:43:34.465Z,23.26
2023-05-22T07:46:22.757Z,23.38
2023-05-22T07:49:23.790Z,23.60
2023-05-22T07:52:12.225Z,23.46
2023-05-22T07:55:01.137Z,23.05
2023-05-22T07:57:49.502Z,23.06
2023-05-22T08:00:46.610Z,23.59
2023-05-22T08:03:34.704Z,24.24
2023-05-22T08:06:23.984Z,24.40
2023-05-22T08:09:12.146Z,24.04
2023-05-22T08:12:00.009Z,23.70
2023-05-22T08:14:47.746Z,24.15
2023-05-22T08:17:35.673Z,24.60
2023-05-22T08:20:23.712Z,24.10
2023-05-22T08:23:11.524Z,23.99
2023-05-22T08:25:59.406Z,24.24
2023-05-22T08:28:47.231Z,24.11
2023-05-22T08:31:36.162Z,25.02
2023-05-22T08:34:25.190Z,23.81
2023-05-22T08:37:15.279Z,23.73
2023-05-22T08:40:03.532Z,24.39
2023-05-22T08:42:54.565Z,24.72
2023-05-22T08:45:44.410Z,24.24
2023-05-22T08:48:33.309Z,24.11
2023-05-22T08:51:22.689Z,24.25
2023-05-22T08:54:10.629Z,24.31
2023-05-22T08:56:58.778Z,24.79
2023-05-22T08:59:46.676Z,24.55
2023-05-22T09:02:34.536Z,24.99
2023-05-22T09:05:27.001Z,25.22
2023-05-22T09:08:20.525Z,24.74
2023-05-22T09:11:11.193Z,25.02
2023-05-22T09:14:09.954Z,25.30
2023-05-22T09:16:57.948Z,24.23
2023-05-22T09:19:46.333Z,24.33
2023-05-22T09:22:40.964Z,24.36
2023-05-22T09:25:28.794Z,24.85
2023-05-22T09:28:16.687Z,24.68
2023-05-22T09:31:06.551Z,24.73
2023-05-22T09:33:56.247Z,24.45
2023-05-22T09:36:44.118Z,24.00
2023-05-22T09:39:46.245Z,23.83
2023-05-22T09:42:35.225Z,23.77
2023-05-22T09:45:24.604Z,23.65
2023-05-22T09:48:18.786Z,23.94
2023-05-22T09:51:07.782Z,24.07
2023-05-22T09:54:03.730Z,23.68
2023-05-22T09:56:55.638Z,22.79
2023-05-22T09:59:48.735Z,24.07
2023-05-22T10:02:38.499Z,24.86
2023-05-22T10:05:31.644Z,25.60
2023-05-22T10:08:24.786Z,25.98
2023-05-22T10:11:13.242Z,26.31
2023-05-22T10:14:03.103Z,25.43
2023-05-22T10:16:51.786Z,26.48
2023-05-22T10:19:42.806Z,26.19
2023-05-22T10:22:33.576Z,26.32
2023-05-22T10:25:26.084Z,26.74
2023-05-22T10:28:22.017Z,25.24
2023-05-22T10:31:44.251Z,24.84
2023-05-22T10:35:08.840Z,25.63
2023-05-22T10:38:08.404Z,25.38
2023-05-22T10:40:57.153Z,25.21
2023-05-22T10:43:49.199Z,25.64
2023-05-22T10:46:37.132Z,25.51
2023-05-22T10:49:26.354Z,25.51
2023-05-22T10:52:15.186Z,25.50
2023-05-22T10:55:09.524Z,25.11
2023-05-22T10:57:57.557Z,25.10
2023-05-22T11:00:45.887Z,25.64
2023-05-22T11:03:52.241Z,26.19
2023-05-22T11:06:49.081Z,26.27
2023-05-22T11:09:43.650Z,25.47
2023-05-22T11:12:31.417Z,26.03
2023-05-22T11:15:32.330Z,26.18
2023-05-22T11:18:20.400Z,26.27
2023-05-22T11:21:10.701Z,26.61
2023-05-22T11:24:02.138Z,26.48
2023-05-22T11:27:10.514Z,26.19
2023-05-22T11:30:00.348Z,26.06
2023-05-22T11:32:48.476Z,26.28
2023-05-22T11:35:38.000Z,26.22
2023-05-22T11:38:26.920Z,25.95
2023-05-22T11:41:16.058Z,25.70
2023-05-22T11:44:08.125Z,25.75
2023-05-22T11:46:56.137Z,24.93
2023-05-22T11:49:44.466Z,24.96
2023-05-22T11:52:36.636Z,25.12
2023-05-22T11:55:24.863Z,25.54
2023-05-22T11:58:12.678Z,25.81
2023-05-22T12:01:03.094Z,26.04
2023-05-22T12:03:50.995Z,26.51
2023-05-22T12:06:38.942Z,26.48
2023-05-22T12:09:29.816Z,26.23
2023-05-22T12:12:17.524Z,26.21
2023-05-22T12:15:08.719Z,25.95
2023-05-22T12:17:56.790Z,25.76
2023-05-22T12:20:44.573Z,25.77
2023-05-22T12:23:32.286Z,26.10
2023-05-22T12:26:20.081Z,26.06
2023-05-22T12:29:07.880Z,26.23
2023-05-22T12:32:04.145Z,26.12
2023-05-22T12:34:51.900Z,26.60
2023-05-22T12:37:39.732Z,26.37
2023-05-22T12:40:27.540Z,27.05
2023-05-22T12:43:15.440Z,26.97
2023-05-22T12:46:03.360Z,26.83
2023-05-22T12:48:51.445Z,26.67
2023-05-22T12:51:39.352Z,26.58
2023-05-22T12:54:27.084Z,27.03
2023-05-22T12:57:17.033Z,27.40
2023-05-22T13:00:06.278Z,27.38
2023-05-22T13:02:54.583Z,27.60
2023-05-22T13:05:43.178Z,26.68
2023-05-22T13:08:30.951Z,26.25
2023-05-22T13:11:20.369Z,26.19
2023-05-22T13:14:08.193Z,26.07
2023-05-22T13:16:55.930Z,25.73
2023-05-22T13:19:43.635Z,25.73
2023-05-22T13:22:31.737Z,25.56
2023-05-22T13:25:19.506Z,25.92
2023-05-22T13:28:07.376Z,26.14
2023-05-22T13:30:55.127Z,26.60
2023-05-22T13:33:42.979Z,26.72
2023-05-22T13:36:31.168Z,26.83
2023-05-22T13:39:19.080Z,26.55
2023-05-22T13:42:07.175Z,26.51
2023-05-22T13:44:54.998Z,26.58
2023-05-22T13:47:42.716Z,26.58
2023-05-22T13:50:30.716Z,26.29
2023-05-22T13:53:18.392Z,26.64
2023-05-22T13:56:06.452Z,26.98
2023-05-22T13:58:54.158Z,26.44
2023-05-22T14:01:42.208Z,26.28
2023-05-22T14:04:29.995Z,26.87
2023-05-22T14:07:17.910Z,26.80
2023-05-22T14:10:06.117Z,26.85
2023-05-22T14:12:54.831Z,26.60
2023-05-22T14:15:43.368Z,26.68
2023-05-22T14:18:32.237Z,26.32
2023-05-22T14:21:21.159Z,26.15
2023-05-22T14:24:08.948Z,26.07
2023-05-22T14:26:59.872Z,26.11
2023-05-22T14:29:47.937Z,25.86
2023-05-22T14:32:38.448Z,26.01
2023-05-22T14:35:26.344Z,25.91
2023-05-22T14:38:14.008Z,26.08
2023-05-22T14:41:02.256Z,25.85
2023-05-22T14:43:50.056Z,25.63
2023-05-22T14:46:37.948Z,25.68
2023-05-22T14:49:26.029Z,25.45
2023-05-22T14:52:14.929Z,25.08
2023-05-22T14:55:02.825Z,25.22
2023-05-22T14:57:50.753Z,24.99
2023-05-22T15:00:38.515Z,24.96
2023-05-22T15:03:26.502Z,24.84
2023-05-22T15:06:14.270Z,24.54
2023-05-22T15:09:02.120Z,24.32
2023-05-22T15:11:53.004Z,24.40
2023-05-22T15:14:40.776Z,24.37
2023-05-22T15:17:28.750Z,24.42
2023-05-22T15:20:16.662Z,24.55
2023-05-22T15:23:07.141Z,24.60
2023-05-22T15:25:55.076Z,24.65
2023-05-22T15:28:42.790Z,24.28
2023-05-22T15:31:31.303Z,24.13
2023-05-22T15:34:18.887Z,23.77
2023-05-22T15:37:06.671Z,23.89
2023-05-22T15:39:54.408Z,23.60
2023-05-22T15:42:42.225Z,23.55
2023-05-22T15:45:30.821Z,23.65
2023-05-22T15:48:19.275Z,23.43
2023-05-22T15:51:09.858Z,23.44
2023-05-22T15:53:57.994Z,23.02
2023-05-22T15:56:48.188Z,23.10
2023-05-22T15:59:36.180Z,23.11
2023-05-22T16:02:24.262Z,22.85
2023-05-22T16:05:12.487Z,22.48
2023-05-22T16:08:00.407Z,22.99
2023-05-22T16:10:51.363Z,22.51
2023-05-22T16:13:39.707Z,22.55
2023-05-22T16:16:27.711Z,22.48
2023-05-22T16:19:15.590Z,22.01
2023-05-22T16:22:03.412Z,22.17
2023-05-22T16:24:51.317Z,22.19
2023-05-22T16:27:41.831Z,21.92
2023-05-22T16:30:29.795Z,21.99
2023-05-22T16:33:17.627Z,21.96
2023-05-22T16:36:06.005Z,21.88
2023-05-22T16:38:56.151Z,22.02
2023-05-22T16:41:43.940Z,21.91
2023-05-22T16:44:31.836Z,22.09
2023-05-22T16:47:22.207Z,22.09
2023-05-22T16:50:09.986Z,22.04
2023-05-22T16:52:57.834Z,21.91
2023-05-22T16:55:45.760Z,21.77
2023-05-22T16:58:33.718Z,21.51
2023-05-22T17:01:22.301Z,21.62
2023-05-22T17:04:14.636Z,21.47
2023-05-22T17:07:02.440Z,21.42
2023-05-22T17:09:50.573Z,21.51
2023-05-22T17:12:39.808Z,21.31
2023-05-22T17:15:31.833Z,21.34
2023-05-22T17:18:23.156Z,21.22
2023-05-22T17:21:11.332Z,21.28
2023-05-22T17:23:59.390Z,21.19
2023-05-22T17:26:49.726Z,21.10
2023-05-22T17:29:37.510Z,20.89
2023-05-22T17:32:25.482Z,20.69
2023-05-22T17:35:19.157Z,20.81
2023-05-22T17:38:08.764Z,20.69
2023-05-22T17:40:56.506Z,20.67
2023-05-22T17:43:44.199Z,20.52
2023-05-22T17:46:35.423Z,20.64
2023-05-22T17:49:23.580Z,20.55
2023-05-22T17:52:16.351Z,20.47
2023-05-22T17:55:08.493Z,20.01
2023-05-22T17:57:56.501Z,20.31
2023-05-22T18:00:52.425Z,19.99
2023-05-22T18:03:42.201Z,20.18
2023-05-22T18:06:30.078Z,20.15
2023-05-22T18:09:18.270Z,19.79
2023-05-22T18:12:07.233Z,20.06
2023-05-22T18:14:58.062Z,19.96
2023-05-22T18:18:04.578Z,19.88
2023-05-22T18:20:52.666Z,19.79
2023-05-22T18:23:40.375Z,19.69
2023-05-22T18:26:30.778Z,19.85
2023-05-22T18:29:19.050Z,19.84
2023-05-22T18:32:09.852Z,19.80
2023-05-22T18:34:58.903Z,19.76
2023-05-22T18:37:46.873Z,19.71
2023-05-22T18:41:05.100Z,19.75
2023-05-22T18:43:53.735Z,19.57
2023-05-22T18:46:41.841Z,19.31
2023-05-22T18:49:29.778Z,19.34
2023-05-22T18:52:17.636Z,19.27
2023-05-22T18:55:06.078Z,19.23
2023-05-22T18:57:54.038Z,19.25
2023-05-22T19:00:42.066Z,19.14
2023-05-22T19:03:29.926Z,19.11
2023-05-22T19:06:19.202Z,18.73
2023-05-22T19:09:07.046Z,18.98
2023-05-22T19:11:54.871Z,18.76
2023-05-22T19:14:42.576Z,18.81
2023-05-22T19:17:30.499Z,18.57
2023-05-22T19:20:18.380Z,18.69
2023-05-22T19:23:06.904Z,18.58
2023-05-22T19:25:55.886Z,18.35
2023-05-22T19:28:43.926Z,18.36
2023-05-22T19:31:31.969Z,18.23
2023-05-22T19:34:19.794Z,18.28
2023-05-22T19:40:55.673Z,18.10
2023-05-22T19:43:46.321Z,17.98
2023-05-22T19:46:34.149Z,17.92
2023-05-22T19:49:21.926Z,17.86
2023-05-22T19:52:09.684Z,17.64
2023-05-22T19:54:57.547Z,17.77
2023-05-22T19:57:45.447Z,17.77
2023-05-22T20:00:33.715Z,17.50
2023-05-22T20:03:21.656Z,17.75
2023-05-22T20:06:09.499Z,17.82
2023-05-22T20:08:58.025Z,17.67
2023-05-22T20:11:45.736Z,17.47
2023-05-22T20:14:33.482Z,17.52
2023-05-22T20:17:22.923Z,17.32
2023-05-22T20:20:11.349Z,17.10
2023-05-22T20:22:59.700Z,17.30
2023-05-22T20:25:47.502Z,17.17
2023-05-22T20:28:35.339Z,17.19
2023-05-22T20:31:23.007Z,17.23
2023-05-22T20:34:10.774Z,16.72
2023-05-22T20:36:58.797Z,17.01
2023-05-22T20:39:46.596Z,16.99
2023-05-22T20:42:37.809Z,17.18
2023-05-22T20:45:30.936Z,17.03
2023-05-22T20:48:21.042Z,17.01
2023-05-22T20:51:10.428Z,17.03
2023-05-22T20:53:59.835Z,17.15
2023-05-22T20:56:47.527Z,17.07
2023-05-22T20:59:37.784Z,16.92
2023-05-22T21:02:26.560Z,16.99
2023-05-22T21:05:14.325Z,17.21
2023-05-22T21:08:02.062Z,17.08
2023-05-22T21:10:49.787Z,17.00
2023-05-22T21:13:37.523Z,16.76
2023-05-22T21:16:25.384Z,16.74
2023-05-22T21:19:13.220Z,16.67
2023-05-22T21:22:01.105Z,16.66
2023-05-22T21:24:48.949Z,16.76
2023-05-22T21:27:36.687Z,16.56
2023-05-22T21:30:24.529Z,16.66
2023-05-22T21:33:12.499Z,16.73
2023-05-22T21:36:00.217Z,16.66
2023-05-22T21:38:48.176Z,16.96
2023-05-22T21:41:35.960Z,16.81
2023-05-22T21:44:23.644Z,16.46
2023-05-22T21:47:11.456Z,16.62
2023-05-22T21:49:59.194Z,16.70
2023-05-22T21:52:46.839Z,16.39
2023-05-22T21:55:36.258Z,16.51
2023-05-22T21:58:44.745Z,16.28
2023-05-22T22:01:32.748Z,16.42
2023-05-22T22:04:20.526Z,16.20
2023-05-22T22:07:08.255Z,16.33
2023-05-22T22:09:56.050Z,16.34
2023-05-22T22:12:43.824Z,16.29
2023-05-22T22:15:32.350Z,16.22
2023-05-22T22:18:20.730Z,16.05
2023-05-22T22:21:08.552Z,16.14
2023-05-22T22:23:56.316Z,16.04
2023-05-22T22:26:49.433Z,15.99
2023-05-22T22:29:37.657Z,16.02
2023-05-22T22:32:25.585Z,16.01
2023-05-22T22:35:13.409Z,15.88
2023-05-22T22:38:01.353Z,15.93
2023-05-22T22:40:49.087Z,15.93
2023-05-22T22:43:36.915Z,15.83
2023-05-22T22:46:24.772Z,15.58
2023-05-22T22:49:12.685Z,15.66
2023-05-22T22:52:00.472Z,15.67
2023-05-22T22:54:48.392Z,15.82
2023-05-22T22:57:36.320Z,15.52
2023-05-22T23:00:24.090Z,15.70
2023-05-22T23:03:11.867Z,15.47
2023-05-22T23:05:59.618Z,15.48
2023-05-22T23:08:47.530Z,15.41
2023-05-22T23:11:37.994Z,15.48
2023-05-22T23:14:28.231Z,15.50
2023-05-22T23:17:15.981Z,15.46
2023-05-22T23:20:06.301Z,15.35
2023-05-22T23:22:54.046Z,15.22
2023-05-22T23:25:42.181Z,15.38
2023-05-22T23:28:30.098Z,15.33
2023-05-22T23:31:17.866Z,15.25
2023-05-22T23:34:05.771Z,15.09
2023-05-22T23:36:53.586Z,15.18
2023-05-22T23:39:41.395Z,15.02
2023-05-22T23:42:29.447Z,15.14
2023-05-22T23:45:17.146Z,15.06
2023-05-22T23:48:04.866Z,14.89
2023-05-22T23:50:52.622Z,14.93
2023-05-22T23:53:44.575Z,14.91
2023-05-22T23:56:32.014Z,14.88
2023-05-22T23:59:19.978Z,14.73
